DAAG

Houari Boumediene Airport

Algiers, Algeria
METAR DAAG 210930Z 03009KT 9999 FEW020 28/19 Q1016
Observed Flight Rules
Jun-21 @ 09:30 UTC (37 minutes ago) Visual Flight Rules
Wind Visibility Clouds
30° at 9 knots 10,000+ meters
  • Few at 2,000' AGL
Temperatures Readings
Current 28°C / 82°F
Dewpoint 19°C / 66°F
Humidity 58%
Altimeter 30" Hg
Pressure 1016 hPa
Elevation 25
METAR DAAG 210930Z 03009KT 9999 FEW020 28/19 Q1016
Observed Flight Rules
Jun-21 @ 09:30 UTC
(37 minutes ago)
VFR
Wind Visibility
30° at 9 knots 10,000+ meters
Clouds
  • Few at 2,000' AGL
Temperature Dewpoint
28°C / 82°F 19°C / 66°F
Humidity Altimeter Pressure
58% 30" Hg 1016 hPa